LTAN

Details ICAO LTAN (KYA)
Name KONYA
Region Turkey
Timezone Europe/Istanbul (UTC+3.0)
Plans Departing 74
Arriving 65
Stats Elevation 3,381 ft / 1,031 m (AMSL)
Location 37.979000° 32.561847°
Runways 1
Magnetic Variation 5.386° E
Sunrise 2018-05-26 02:33:20 UTC / 2018-05-26 05:33:20 Local
Sunset 2018-05-26 17:03:06 UTC / 2018-05-26 20:03:06 Local
Advertisement - Login to hide

Runways

ID Width Length Bearing (true) Bearing (mag) Surface Threshold Offset Overrun Length
01 148 ft / 45 m 11,008 ft / 3,355 m 16.74° 11.35° Asphalt 0 ft / 0 m 328 ft / 100 m
19 148 ft / 45 m 11,008 ft / 3,355 m 196.75° 191.36° Asphalt 0 ft / 0 m 328 ft / 100 m

Map

Weather


0- 5 10 15 20 25 30 35+ Temperature / ° C

Clouds and Precipitation
Forecast for 2018-05-26 00:00 UTC. Updated 2 hours ago

Ground ~20,000 ft ~40,000 ft Winds

METAR

LTAN 260050Z 32005KT 270V010 CAVOK 13/10 Q1011 NOSIG

TAF

Not found

Frequencies

Recorded 128.35 MHz ATIS
Tower 122.10 MHz TWR
Ground 121.95 MHz GND
Approach 122.10 MHz APP
Warning: Do not use this data for real-world aviation or navigation. No guarantee of current accuracy is given.